Airfield :
LOGIN :

Register | Disclaimer

   EN    FR    IT 

 










Legend :    VFR   Marginal VFR   IFR   Intensive IFR   Very Intensive IFR
Visi :
Ceiling :
>= 8 km
>= 3000ft
5 to 8 km
1000 to 3000 ft
1500m to 5 km
500 to 1000 ft
800 to 1500m
200 to 500 ft
< 800m
< 200 ft
Symbols :   Thunderstorms  Fog  Heavy snow  Heavy precipitations  Wind > 20 kt
SIGMETs :     Misc.  Thunderstorms  Icing  Turbulence  Mountain Waves  Volcanic Ashes






- Airport Elevation : 408 ft
- IATA code : KWG


UKDR - Lozuvatka

CURRENT METAR :
  • 281730Z 11002MPS 1900 1100N R36/P2000N BR OVC032 03/01 Q1009 R36/290157 BECMG 0400 -RA FG VV002

EXPIRED METARs :
  • 281700Z 11003MPS 1500 1300NE R36/P2000N BR OVC015 03/02 Q1009 R36/290157 BECMG 0400 -RA FG VV002
  • 281630Z 11003MPS 0900 R36/P2000N FG VV002 03/03 Q1010 R36/290157 BECMG 0400 -RA FG
  • 281600Z 12003MPS 1400 R36/P2000N BR SCT030CB 03/01 Q1010 R36/290157 BECMG 0400 -RA FG VV002
  • 281530Z 11003MPS 080V160 2100 -SHRA BR BKN030CB 03/01 Q1010 R36/290157 BECMG 1400 -SHRA BR BKN004
  • 281500Z 10003MPS 070V130 2500 -SHRA BR BKN030CB 03/01 Q1009 R36/290157 BECMG 1400 -SHRA BR

TAF TAF UKDR
Valid from the 28 at 18:00 until the 29 at 18:00 UTC


281708Z 2818/2918 12003MPS 0200 -RA FG VV002 TX06/2912Z TN03/2903Z
TEMPO 2818/2906 1100 SHRA BR BKN003 BKN015CB
BECMG 2906/2908 19009G14MPS 3000 -SHRA BR BKN007 BKN020CB



MET'MAP, your aeronautical weather chart ! - Copyright ORBIFLY December 2007 - Disclaimer

ORBIFLY MET'MAP TEAM :

Programming & Development : Alexandra Zaïnal
Concept & original design : Baudouin d'Aumeries
Assistance for programming : Marc-Olivier Méhu
Technical & hardware support : Manuel Goepfert

Contact : metmap@orbifly.com




SOURCES & CREDITS :

   NOAA